Time;durP1;ratioP1;P1;durP2;ratioP2;P2;SDS_P1;SDS_P2;PMS_P1;PMS_P2;Temp;Humidity;BMP_temperature;BMP_pressure;BME280_temperature;BME280_humidity;BME280_pressure;Samples;Min_cycle;Max_cycle;Signal;HPM_P1;HPM_P2
2023/07/11 00:01:16;;;;;;;12.40;11.20;;;21.10;81.50;;;21.01;65.77;98200.38;5024140;28;20454;-72
2023/07/11 00:03:44;;;;;;;12.83;11.70;;;21.00;82.10;;;20.81;66.20;98195.75;5042209;28;21061;-75
2023/07/11 00:06:21;;;;;;;15.03;12.00;;;21.00;82.00;;;20.89;66.54;98200.69;5025255;28;20453;-73
2023/07/11 00:08:48;;;;;;;13.77;11.77;;;21.00;82.40;;;20.91;66.21;98201.22;5033115;28;20456;-74
2023/07/11 00:11:18;;;;;;;11.83;10.73;;;20.90;82.70;;;20.79;66.64;98192.44;5024155;28;21059;-74
2023/07/11 00:13:46;;;;;;;12.27;10.10;;;20.80;82.90;;;20.92;66.59;98197.38;5031705;28;20454;-75
2023/07/11 00:16:16;;;;;;;11.90;10.80;;;20.90;83.30;;;21.13;66.17;98197.28;5032186;28;20464;-73
2023/07/11 00:18:46;;;;;;;12.50;10.13;;;21.00;83.10;;;21.06;65.71;98196.78;5036177;28;20462;-72
2023/07/11 00:21:13;;;;;;;13.13;11.73;;;21.10;82.70;;;21.17;66.08;98197.56;5026357;28;21081;-75
2023/07/11 00:23:42;;;;;;;12.90;11.33;;;21.10;83.00;;;21.54;64.05;98199.06;5028454;28;20946;-75
2023/07/11 00:26:09;;;;;;;12.80;11.50;;;21.40;81.70;;;21.61;63.98;98195.97;5039663;28;20455;-75
2023/07/11 00:28:37;;;;;;;11.53;10.43;;;21.50;81.50;;;21.77;63.29;98192.06;5035482;28;20481;-73
2023/07/11 00:31:04;;;;;;;12.57;11.30;;;21.60;81.10;;;21.74;63.22;98200.88;5075641;28;20449;-70
2023/07/11 00:33:32;;;;;;;11.40;10.30;;;21.70;80.60;;;21.99;62.34;98193.56;5052105;28;20450;-71
2023/07/11 00:35:59;;;;;;;14.37;11.20;;;21.80;80.20;;;21.85;62.61;98184.31;5044979;28;20517;-68
2023/07/11 00:38:27;;;;;;;13.20;11.90;;;21.80;80.00;;;21.94;62.35;98190.84;5044664;28;20452;-74
2023/07/11 00:40:54;;;;;;;14.03;11.90;;;21.90;79.90;;;21.90;62.45;98185.09;5032213;28;20505;-71
2023/07/11 00:43:22;;;;;;;13.20;11.90;;;21.80;79.90;;;21.43;63.88;98189.22;5030932;28;20459;-72
2023/07/11 00:46:11;;;;;;;13.50;11.70;;;21.60;80.30;;;20.95;65.54;98179.53;5040375;28;20458;-71
2023/07/11 00:48:44;;;;;;;12.53;11.23;;;21.30;81.20;;;20.61;66.33;98139.78;5025561;28;20549;-75
2023/07/11 00:51:15;;;;;;;12.93;11.73;;;21.10;81.90;;;20.55;67.08;98176.59;5057385;28;20517;-78
2023/07/11 00:53:44;;;;;;;12.40;11.20;;;20.80;82.70;;;20.79;67.21;98170.47;5031141;28;20600;-73
2023/07/11 00:56:17;;;;;;;13.17;11.80;;;20.80;83.70;;;20.99;66.27;98171.53;5028898;28;20448;-77
2023/07/11 00:58:46;;;;;;;12.63;10.83;;;20.90;83.20;;;21.31;65.05;98175.81;5030886;28;20464;-74
2023/07/11 01:01:15;;;;;;;12.30;11.13;;;21.20;82.50;;;21.47;64.33;98163.63;5027367;28;20973;-76
2023/07/11 01:03:44;;;;;;;13.10;11.33;;;21.30;82.00;;;21.47;64.29;98158.16;5042490;28;21013;-74
2023/07/11 01:06:14;;;;;;;12.20;10.90;;;21.30;81.90;;;21.42;64.21;98171.09;5030298;28;20547;-75
2023/07/11 01:08:42;;;;;;;12.50;11.30;;;21.40;81.60;;;20.99;65.47;98155.06;5028527;28;20526;-75
2023/07/11 01:11:09;;;;;;;11.77;10.63;;;21.20;81.80;;;21.19;65.37;98156.91;5041685;28;20453;-74
2023/07/11 01:13:37;;;;;;;12.30;11.20;;;21.20;82.30;;;21.25;65.05;98157.69;5029046;28;20532;-74
2023/07/11 01:16:05;;;;;;;12.10;10.90;;;21.20;82.30;;;21.61;63.82;98157.47;5032256;28;20453;-70
2023/07/11 01:18:32;;;;;;;11.83;10.73;;;21.40;81.90;;;21.63;63.49;98167.09;5040428;28;20461;-75
2023/07/11 01:21:01;;;;;;;11.87;10.70;;;21.50;81.00;;;21.71;63.12;98157.47;5035946;28;20458;-74
2023/07/11 01:23:30;;;;;;;13.40;10.83;;;21.60;80.90;;;21.70;62.96;98153.06;5027221;28;20486;-74
2023/07/11 01:26:02;;;;;;;12.10;10.83;;;21.70;80.70;;;21.38;63.31;98096.63;5037767;28;20461;-74
2023/07/11 01:28:30;;;;;;;13.00;10.10;;;21.60;81.00;;;21.81;62.78;98159.31;5036576;28;20508;-72
2023/07/11 01:30:57;;;;;;;11.53;10.00;;;21.60;80.60;;;21.71;62.86;98151.97;5049443;28;20448;-71
2023/07/11 01:33:26;;;;;;;11.93;10.73;;;21.60;80.60;;;21.65;63.00;98153.91;5026164;28;20487;-74
2023/07/11 01:35:54;;;;;;;11.97;10.87;;;21.60;80.70;;;21.60;63.14;98155.84;5035742;28;20479;-73
2023/07/11 01:38:24;;;;;;;11.77;10.57;;;21.50;80.70;;;21.54;63.75;98162.50;5027175;28;21084;-74
2023/07/11 01:40:53;;;;;;;12.37;11.17;;;21.40;80.90;;;21.22;64.78;98145.34;5027052;28;20590;-75
2023/07/11 01:43:21;;;;;;;13.03;11.73;;;21.20;81.40;;;21.21;64.42;98147.28;5036008;28;20478;-75
2023/07/11 01:45:49;;;;;;;11.23;10.00;;;21.20;81.50;;;21.38;63.77;98137.84;5045956;28;20455;-73
2023/07/11 01:48:16;;;;;;;11.33;10.20;;;21.30;81.20;;;21.56;62.97;98136.38;5041471;28;20461;-75
2023/07/11 01:50:43;;;;;;;11.70;10.57;;;21.50;80.70;;;21.50;63.46;98143.81;5037344;28;20928;-71
2023/07/11 01:53:10;;;;;;;12.53;11.33;;;21.50;80.70;;;21.59;63.16;98141.28;5025703;28;20481;-75
2023/07/11 01:55:38;;;;;;;11.30;10.20;;;21.50;80.50;;;21.19;64.19;98141.25;5038283;28;20477;-74
2023/07/11 01:58:06;;;;;;;13.60;11.10;;;21.30;80.80;;;20.79;65.62;98143.03;5045886;28;21013;-74
2023/07/11 02:00:33;;;;;;;11.50;10.40;;;21.00;81.40;;;20.31;67.40;98130.53;5028030;28;20929;-73
2023/07/11 02:03:01;;;;;;;12.27;10.80;;;20.70;82.70;;;20.14;68.46;98149.19;5024550;28;20450;-73
2023/07/11 02:05:28;;;;;;;12.13;10.93;;;20.40;83.80;;;19.99;69.11;98142.63;5038109;28;20453;-77
2023/07/11 02:07:55;;;;;;;11.30;10.20;;;20.20;84.60;;;19.97;69.13;98136.59;5024682;28;20462;-75
2023/07/11 02:10:22;;;;;;;12.07;10.87;;;20.10;85.40;;;19.82;70.11;98142.84;5040823;28;20939;-76
2023/07/11 02:12:50;;;;;;;12.40;11.10;;;20.00;86.10;;;20.21;69.27;98136.00;5023899;28;20474;-73
2023/07/11 02:15:18;;;;;;;10.63;9.73;;;20.10;86.50;;;20.64;67.28;98121.94;5027867;28;21013;-75
2023/07/11 02:17:45;;;;;;;12.30;10.80;;;20.40;85.20;;;20.83;66.34;98132.34;5024653;28;20509;-76
2023/07/11 02:20:13;;;;;;;10.20;9.30;;;20.70;84.00;;;21.04;65.45;98124.84;5024781;28;20530;-75
2023/07/11 02:22:40;;;;;;;10.40;9.47;;;20.90;83.30;;;21.13;64.95;98125.06;5026231;28;20469;-75
2023/07/11 02:25:08;;;;;;;11.83;10.63;;;21.10;82.70;;;21.04;65.04;98133.09;5027217;28;21028;-75
2023/07/11 02:27:36;;;;;;;14.00;10.60;;;21.00;82.70;;;20.74;66.18;98123.84;5025744;28;20504;-74
2023/07/11 02:30:03;;;;;;;11.70;10.50;;;20.70;83.50;;;20.52;67.16;98124.97;5027033;28;20532;-75
2023/07/11 02:32:32;;;;;;;12.63;11.43;;;20.60;84.20;;;20.36;67.73;98130.50;5023321;28;20565;-74
2023/07/11 02:34:59;;;;;;;13.37;11.43;;;20.40;84.60;;;20.24;68.42;98122.56;5022064;28;20461;-76
2023/07/11 02:37:27;;;;;;;12.10;10.90;;;20.30;85.00;;;20.08;68.86;98131.91;5022476;28;20476;-73
2023/07/11 02:39:55;;;;;;;12.13;10.50;;;20.20;85.30;;;20.04;69.26;98139.06;5026301;28;20443;-71
2023/07/11 02:42:22;;;;;;;13.10;11.80;;;20.10;86.00;;;19.93;69.80;98143.69;5028490;28;20473;-74
2023/07/11 02:44:49;;;;;;;14.73;13.17;;;20.00;86.40;;;19.68;70.78;98143.38;5042821;28;20457;-75
2023/07/11 02:47:16;;;;;;;13.83;12.50;;;19.80;87.40;;;19.46;71.70;98140.06;5032633;28;20951;-72
2023/07/11 02:49:45;;;;;;;14.70;13.27;;;19.60;87.90;;;19.36;72.09;98147.16;5033950;28;20515;-76
2023/07/11 02:52:13;;;;;;;13.83;12.43;;;19.50;88.40;;;19.36;72.44;98141.69;5039041;28;20567;-74
2023/07/11 02:54:40;;;;;;;14.60;12.70;;;19.40;89.20;;;19.12;73.21;98135.88;5033389;28;20446;-77
2023/07/11 02:57:12;;;;;;;15.23;13.63;;;19.30;89.90;;;19.25;73.18;98140.84;5028119;28;20607;-76
2023/07/11 02:59:39;;;;;;;12.93;11.60;;;19.20;90.20;;;19.17;73.13;98133.13;5027660;28;20480;-75
2023/07/11 03:02:07;;;;;;;13.87;12.50;;;19.30;90.20;;;19.28;73.03;98133.16;5027692;28;20457;-75
2023/07/11 03:04:34;;;;;;;16.10;12.73;;;19.30;90.20;;;19.11;73.57;98128.75;5041387;28;20480;-74
2023/07/11 03:07:02;;;;;;;13.63;12.30;;;19.20;90.40;;;19.04;73.86;98134.47;5026235;28;20789;-73
2023/07/11 03:09:33;;;;;;;15.47;13.30;;;19.10;90.60;;;18.94;74.07;98126.19;5048872;28;20456;-74
2023/07/11 03:12:00;;;;;;;13.57;12.17;;;19.10;90.80;;;18.88;74.70;98132.72;5041819;28;20474;-73
2023/07/11 03:14:28;;;;;;;15.27;13.67;;;19.10;90.90;;;18.91;74.34;98113.88;5042667;28;20461;-73
2023/07/11 03:16:55;;;;;;;15.00;13.33;;;19.10;91.00;;;19.13;74.04;98132.03;5029242;28;20998;-75
2023/07/11 03:19:22;;;;;;;16.87;13.87;;;19.10;90.90;;;19.38;72.68;98125.00;5033954;28;20467;-75
2023/07/11 03:21:50;;;;;;;14.53;12.23;;;19.30;90.50;;;19.52;71.48;98119.78;5032983;28;20465;-76
2023/07/11 03:24:19;;;;;;;15.87;12.63;;;19.60;89.40;;;19.75;70.88;98117.63;5025100;28;21283;-74
2023/07/11 03:26:47;;;;;;;14.73;12.83;;;19.70;88.60;;;19.72;71.07;98116.25;5028010;28;20857;-74
2023/07/11 03:29:15;;;;;;;12.73;11.27;;;19.80;88.20;;;20.10;68.98;98102.28;5030804;28;20458;-72
2023/07/11 03:31:43;;;;;;;18.10;13.70;;;20.00;87.50;;;20.31;68.05;98105.00;5033847;28;20508;-76
2023/07/11 03:34:10;;;;;;;15.37;12.47;;;20.40;86.00;;;20.40;68.03;98111.56;5027465;28;20484;-74
2023/07/11 03:36:37;;;;;;;15.50;12.93;;;20.40;86.00;;;20.31;67.83;98105.84;5025295;28;20450;-74
2023/07/11 03:39:05;;;;;;;15.43;12.80;;;20.50;85.20;;;19.98;69.12;98113.56;5031830;28;20454;-74
2023/07/11 03:41:34;;;;;;;14.60;13.10;;;20.20;86.00;;;19.75;70.21;98115.72;5024559;28;20467;-77
2023/07/11 03:44:01;;;;;;;15.13;11.37;;;20.00;86.70;;;19.45;71.42;98108.28;5040255;28;20446;-74
2023/07/11 03:46:28;;;;;;;17.00;14.80;;;19.70;87.80;;;19.30;72.08;98120.03;5023476;28;20772;-74
2023/07/11 03:49:00;;;;;;;19.80;13.80;;;19.60;88.10;;;19.24;72.32;98121.91;5034933;28;20454;-74
2023/07/11 03:51:27;;;;;;;15.67;14.00;;;19.50;88.70;;;19.18;72.44;98118.34;5024791;28;20460;-75
2023/07/11 03:53:54;;;;;;;14.87;13.37;;;19.40;89.00;;;19.24;72.42;98110.97;5033228;28;20943;-77
2023/07/11 03:56:22;;;;;;;15.33;12.40;;;19.30;89.50;;;19.22;73.22;98124.13;5026883;28;20455;-73
2023/07/11 03:58:51;;;;;;;16.10;14.50;;;19.30;90.00;;;19.30;72.69;98118.13;5029797;28;20515;-74
2023/07/11 04:01:18;;;;;;;19.90;13.50;;;19.40;89.80;;;19.32;72.36;98123.31;5033366;28;20450;-73
2023/07/11 04:03:46;;;;;;;14.50;12.90;;;19.40;89.40;;;19.16;72.67;98115.06;5030181;28;20464;-74
2023/07/11 04:06:14;;;;;;;13.83;12.37;;;19.40;89.50;;;19.33;72.64;98103.03;5029481;28;21023;-74
2023/07/11 04:08:41;;;;;;;15.03;13.50;;;19.40;89.60;;;19.49;71.74;98106.66;5035174;28;20454;-73
2023/07/11 04:11:09;;;;;;;14.60;12.00;;;19.50;89.30;;;19.60;71.46;98099.25;5037466;28;20508;-73
2023/07/11 04:13:36;;;;;;;13.53;12.23;;;19.70;88.60;;;19.99;69.83;98086.94;5027960;28;20551;-74
2023/07/11 04:16:06;;;;;;;13.17;11.77;;;20.10;86.90;;;20.44;67.72;98087.16;5034147;28;20545;-74
2023/07/11 04:18:33;;;;;;;12.43;11.13;;;20.60;85.30;;;21.32;64.92;98095.84;5040520;28;20844;-73
2023/07/11 04:21:00;;;;;;;13.00;11.50;;;21.30;83.70;;;22.10;61.65;98078.75;5035456;28;20480;-72
2023/07/11 04:23:27;;;;;;;13.70;12.20;;;22.10;81.40;;;22.75;59.13;98096.81;5034430;28;20487;-72
2023/07/11 04:25:55;;;;;;;11.67;10.50;;;22.80;79.20;;;23.12;57.31;98088.88;5038412;28;20529;-72
2023/07/11 04:28:22;;;;;;;12.17;10.87;;;23.40;77.00;;;23.49;55.87;98094.75;5042308;28;20544;-72
2023/07/11 04:30:52;;;;;;;12.17;10.83;;;23.70;75.70;;;23.80;54.95;98093.44;5038518;28;20535;-72
2023/07/11 04:33:20;;;;;;;13.03;11.70;;;24.00;74.70;;;24.09;53.67;98082.22;5032942;28;20507;-72
2023/07/11 04:35:47;;;;;;;12.90;10.37;;;24.50;73.20;;;24.97;51.66;98088.03;5030568;28;20486;-71
2023/07/11 04:38:15;;;;;;;10.17;9.17;;;24.90;72.20;;;25.29;50.29;98086.22;5029425;28;20450;-73
2023/07/11 04:40:42;;;;;;;10.97;9.63;;;25.60;70.50;;;25.42;49.92;98093.66;5024419;28;20458;-73
2023/07/11 04:43:10;;;;;;;12.23;10.93;;;25.70;68.90;;;25.25;50.75;98085.19;5026457;28;20444;-72
2023/07/11 04:45:37;;;;;;;13.20;11.90;;;25.70;68.50;;;24.81;51.33;98090.28;5027606;28;20521;-72
2023/07/11 04:48:05;;;;;;;11.90;10.80;;;25.70;68.10;;;24.44;52.66;98070.81;5059484;28;21014;-71
2023/07/11 04:50:33;;;;;;;12.17;10.90;;;25.20;68.50;;;24.90;51.25;98089.25;5028723;28;20885;-72
2023/07/11 04:53:00;;;;;;;11.77;10.57;;;25.40;68.20;;;25.56;49.46;98090.06;5027453;28;21168;-72
2023/07/11 04:55:27;;;;;;;12.20;10.73;;;25.70;67.70;;;24.02;52.37;98024.66;5039122;28;20523;-72
2023/07/11 04:57:55;;;;;;;12.00;10.73;;;25.60;67.30;;;24.05;53.42;98082.03;5035921;28;20457;-72
2023/07/11 05:00:22;;;;;;;11.20;10.10;;;24.80;68.30;;;25.29;50.60;98087.00;5043219;28;20837;-72
2023/07/11 05:02:49;;;;;;;11.27;10.17;;;25.30;68.00;;;25.71;49.11;98089.69;5043446;28;20469;-72
2023/07/11 05:05:17;;;;;;;11.30;10.10;;;25.90;66.60;;;25.95;48.56;98083.00;5031444;28;20467;-70
2023/07/11 05:07:46;;;;;;;13.53;10.43;;;26.60;65.30;;;26.59;46.99;98078.31;5021486;28;20450;-72
2023/07/11 05:10:13;;;;;;;13.47;11.80;;;26.80;64.80;;;27.09;45.88;98079.09;5030877;28;20574;-72
2023/07/11 05:12:41;;;;;;;11.03;9.90;;;27.30;63.70;;;27.15;45.33;98084.19;5028036;28;20526;-72
2023/07/11 05:15:11;;;;;;;10.20;9.30;;;27.60;62.70;;;27.68;44.14;98088.97;5056384;28;20489;-71
2023/07/11 05:17:38;;;;;;;11.27;10.27;;;28.10;61.80;;;27.81;43.85;98087.13;5030139;28;20534;-72
2023/07/11 05:20:08;;;;;;;14.47;10.60;;;28.40;60.50;;;27.56;44.88;98076.56;5028064;28;20469;-71
2023/07/11 05:22:35;;;;;;;10.93;9.70;;;28.40;60.70;;;27.56;44.45;98081.31;5027451;28;21099;-72
2023/07/11 05:25:03;;;;;;;11.60;10.10;;;28.00;60.50;;;28.16;42.49;98081.53;5056025;28;20462;-72
2023/07/11 05:27:31;;;;;;;10.47;9.50;;;28.60;59.20;;;27.25;44.20;98082.25;5023834;28;20528;-72
2023/07/11 05:29:58;;;;;;;10.70;9.70;;;28.10;59.00;;;26.70;45.23;98078.81;5056730;28;20774;-72
2023/07/11 05:32:26;;;;;;;11.40;10.40;;;27.50;59.10;;;26.96;44.71;98080.88;5021250;28;21736;-70
2023/07/11 05:34:53;;;;;;;11.93;9.83;;;27.50;59.20;;;26.93;44.59;98087.88;5032173;28;20489;-71
2023/07/11 05:37:20;;;;;;;10.60;9.50;;;27.60;58.90;;;27.55;43.67;98082.44;5015749;28;20630;-71
2023/07/11 05:39:47;;;;;;;12.27;9.80;;;28.00;58.80;;;28.34;42.07;98075.94;5029767;28;20450;-80
2023/07/11 05:42:15;;;;;;;12.73;10.17;;;28.60;58.20;;;27.91;42.95;98069.34;5067080;28;20446;-85
2023/07/11 05:44:43;;;;;;;16.13;14.40;;;28.90;58.00;;;27.29;43.79;98083.22;5024894;28;20812;-70
2023/07/11 05:47:10;;;;;;;14.43;12.00;;;28.10;57.80;;;26.78;44.84;98078.03;5021233;28;20553;-71
2023/07/11 05:49:38;;;;;;;13.10;11.70;;;27.60;58.30;;;26.72;45.26;98077.38;5028386;28;20489;-70
2023/07/11 05:52:06;;;;;;;12.17;10.97;;;27.50;58.50;;;26.85;45.13;98075.59;5059243;28;20454;-71
2023/07/11 05:54:33;;;;;;;12.33;11.10;;;27.50;58.60;;;27.23;44.28;98073.44;5052422;28;20849;-70
2023/07/11 05:57:01;;;;;;;13.00;11.30;;;27.60;58.40;;;26.93;44.72;98071.25;5026680;28;20462;-69
2023/07/11 05:59:30;;;;;;;12.60;11.20;;;27.40;58.60;;;27.53;43.87;98065.31;5042787;28;20442;-71
2023/07/11 06:01:57;;;;;;;11.67;10.57;;;27.60;58.60;;;27.23;43.74;98065.91;5020397;28;20810;-70
2023/07/11 06:04:24;;;;;;;13.23;10.73;;;27.80;58.00;;;27.54;43.07;98064.16;5019405;28;21229;-72
2023/07/11 06:06:52;;;;;;;10.20;9.20;;;27.90;57.90;;;27.23;43.40;98067.88;5023227;28;20455;-70
2023/07/11 06:09:21;;;;;;;10.73;9.73;;;27.60;57.50;;;27.90;42.45;98068.53;5031770;28;20502;-70
2023/07/11 06:11:50;;;;;;;12.10;10.90;;;28.00;57.60;;;27.58;42.67;98056.81;5026299;28;20458;-72
2023/07/11 06:14:20;;;;;;;10.87;9.87;;;28.30;57.10;;;27.85;42.34;98065.94;5021719;28;20496;-71
2023/07/11 06:16:49;;;;;;;10.50;9.40;;;28.40;57.00;;;27.24;43.99;98059.22;5016679;28;20463;-69
2023/07/11 06:19:16;;;;;;;11.03;9.97;;;28.10;57.00;;;27.35;43.54;98056.94;5020654;28;20446;-73
2023/07/11 06:21:44;;;;;;;10.73;9.60;;;28.10;57.10;;;27.76;42.81;98065.13;5024420;28;20449;-71
2023/07/11 06:24:12;;;;;;;10.83;9.80;;;28.40;57.00;;;28.11;42.28;98063.09;5014100;28;20461;-69
2023/07/11 06:26:39;;;;;;;10.10;9.00;;;28.60;56.80;;;28.45;41.33;98065.28;5024825;28;21208;-68
2023/07/11 06:29:06;;;;;;;9.60;8.57;;;29.00;55.90;;;28.17;41.49;98071.25;5037963;28;20454;-70
2023/07/11 06:31:34;;;;;;;9.30;8.40;;;28.80;55.70;;;27.27;42.75;98046.69;5019249;28;20451;-71
2023/07/11 06:34:02;;;;;;;10.40;9.47;;;28.40;55.80;;;26.34;44.31;98018.91;5020916;28;20539;-71
2023/07/11 06:36:29;;;;;;;9.37;8.57;;;27.30;56.80;;;25.89;46.07;98059.38;5021881;28;20496;-71
2023/07/11 06:38:57;;;;;;;9.00;8.20;;;26.50;57.60;;;25.57;46.61;98055.75;5019889;28;20498;-71
2023/07/11 06:41:24;;;;;;;9.87;8.97;;;25.80;58.50;;;25.58;47.42;98057.38;5023878;28;20461;-71
2023/07/11 06:43:51;;;;;;;10.33;9.27;;;25.70;59.30;;;25.39;47.68;98058.31;5024865;28;20512;-68
2023/07/11 06:46:18;;;;;;;10.50;9.33;;;25.60;59.60;;;25.34;48.18;98057.66;5012420;28;20498;-71
2023/07/11 06:48:45;;;;;;;11.33;9.17;;;25.50;59.90;;;25.33;48.41;98065.09;5021273;28;20929;-71
2023/07/11 06:51:16;;;;;;;9.10;8.23;;;25.60;60.40;;;25.46;48.14;98061.47;5013244;28;20546;-70
2023/07/11 06:53:43;;;;;;;9.57;8.77;;;25.60;60.30;;;25.50;47.63;98058.94;5014051;28;20493;-69
2023/07/11 06:56:10;;;;;;;9.07;8.27;;;25.60;60.10;;;25.83;47.38;98064.22;5002702;28;20947;-70
2023/07/11 06:58:38;;;;;;;9.50;8.60;;;25.80;60.30;;;25.98;47.29;98063.00;5019633;28;21128;-73
2023/07/11 07:01:07;;;;;;;9.63;8.63;;;25.90;60.30;;;26.06;46.64;98055.06;5021469;28;20798;-69
2023/07/11 07:03:34;;;;;;;9.30;8.40;;;26.00;59.80;;;26.09;46.43;98049.72;5019330;28;20473;-72
2023/07/11 07:06:03;;;;;;;8.70;7.90;;;26.10;59.80;;;25.94;46.42;98048.16;5052739;28;20457;-71
2023/07/11 07:08:32;;;;;;;9.77;8.77;;;26.10;59.50;;;26.11;45.75;97980.19;5019878;28;20530;-70
2023/07/11 07:10:59;;;;;;;9.23;8.40;;;26.40;59.40;;;26.83;45.23;98050.19;5022886;28;20202;-70
2023/07/11 07:13:26;;;;;;;9.83;8.93;;;26.60;59.30;;;26.65;45.13;98048.50;5054392;28;20509;-72
2023/07/11 07:15:57;;;;;;;10.43;9.33;;;26.70;59.00;;;26.97;44.77;98057.56;5033544;28;20977;-75
2023/07/11 07:18:25;;;;;;;11.57;8.27;;;26.90;59.00;;;27.06;44.27;98049.25;5022015;28;20496;-79
2023/07/11 07:20:54;;;;;;;8.93;8.03;;;27.00;58.70;;;26.86;44.33;98049.56;5036484;28;20442;-81
2023/07/11 07:23:21;;;;;;;9.53;8.30;;;27.10;58.20;;;26.70;44.88;98049.19;5025111;28;20460;-76
2023/07/11 07:25:53;;;;;;;9.50;8.50;;;26.80;58.40;;;26.80;44.52;98045.28;5031345;28;20857;-82
2023/07/11 07:28:21;;;;;;;9.53;8.60;;;26.80;58.30;;;27.21;43.95;98046.03;5039649;28;20796;-77
2023/07/11 07:30:51;;;;;;;9.20;8.13;;;27.10;58.30;;;26.86;44.63;98034.91;5047034;28;20699;-74
2023/07/11 07:33:18;;;;;;;8.80;7.97;;;27.00;58.40;;;27.33;43.76;98030.69;5053854;28;20458;-76
2023/07/11 07:35:46;;;;;;;8.47;7.60;;;27.30;58.50;;;27.04;44.24;98032.94;5061043;28;20508;-80
2023/07/11 07:38:13;;;;;;;8.30;7.60;;;27.30;58.20;;;26.94;43.70;98036.06;5030805;28;20451;-82
2023/07/11 07:40:41;;;;;;;8.73;7.93;;;27.10;57.70;;;27.38;43.48;98034.13;5032287;28;21038;-81
2023/07/11 07:43:10;;;;;;;8.93;8.10;;;27.30;57.90;;;27.53;42.85;98007.06;5036033;28;20457;-80
2023/07/11 07:45:37;;;;;;;10.13;7.40;;;27.60;57.70;;;27.81;42.30;98034.41;5034680;28;20447;-79
2023/07/11 07:48:05;;;;;;;8.63;7.83;;;27.80;57.10;;;27.79;42.19;98031.97;5043070;28;20516;-80
2023/07/11 07:50:32;;;;;;;7.70;6.60;;;27.90;56.80;;;27.18;43.00;98031.97;5044673;28;20458;-78
2023/07/11 07:52:59;;;;;;;8.70;7.90;;;27.50;56.60;;;27.39;43.02;98032.16;5031796;28;20486;-81
2023/07/11 07:55:26;;;;;;;9.53;8.10;;;27.40;57.20;;;28.14;41.63;98023.53;5026849;28;21231;-80
2023/07/11 07:57:53;;;;;;;8.70;7.90;;;27.80;57.10;;;28.46;40.41;98016.91;5060961;28;20478;-82
2023/07/11 08:00:23;;;;;;;7.60;6.83;;;28.30;56.30;;;28.69;39.96;98007.16;5027670;28;20458;-83
2023/07/11 08:02:50;;;;;;;7.90;7.20;;;28.40;55.70;;;29.01;39.36;98015.13;5040667;28;20533;-83
2023/07/11 08:05:17;;;;;;;8.13;7.33;;;28.80;55.50;;;29.17;38.86;98017.28;5047581;28;20804;-82
2023/07/11 08:07:45;;;;;;;7.83;7.17;;;28.90;55.10;;;29.32;38.11;98013.09;5033395;28;20542;-83
2023/07/11 08:10:12;;;;;;;7.37;6.77;;;29.10;54.50;;;28.78;38.60;98012.66;5034109;28;20473;-82
2023/07/11 08:12:40;;;;;;;7.50;6.80;;;29.00;54.10;;;28.73;38.68;98015.59;5026825;28;20458;-80
2023/07/11 08:15:09;;;;;;;10.00;6.63;;;28.80;54.10;;;29.27;37.72;98009.38;5039747;28;20544;-77
2023/07/11 08:17:38;;;;;;;7.87;7.00;;;29.00;53.90;;;29.30;37.40;98005.06;5035241;28;20509;-83
2023/07/11 08:20:08;;;;;;;7.10;6.40;;;29.20;53.10;;;29.59;36.19;98002.56;5032457;28;21305;-81
2023/07/11 08:22:36;;;;;;;8.00;7.30;;;29.40;52.60;;;29.66;35.91;97997.25;5028692;28;21097;-81
2023/07/11 08:25:04;;;;;;;7.57;6.77;;;29.50;52.60;;;29.83;36.03;98005.41;5021597;28;20459;-78
2023/07/11 08:27:33;;;;;;;6.60;6.10;;;29.70;52.70;;;29.45;35.30;97994.50;5026742;28;21224;-82
2023/07/11 08:30:00;;;;;;;5.67;5.17;;;29.60;51.40;;;29.56;34.62;97951.19;5027805;28;20725;-80
2023/07/11 08:32:27;;;;;;;5.03;4.63;;;29.60;51.50;;;29.84;35.23;97983.97;5031231;28;20469;-82
2023/07/11 08:34:55;;;;;;;5.97;5.50;;;29.70;51.50;;;30.02;35.29;97986.53;5027842;28;20470;-81
2023/07/11 08:37:23;;;;;;;6.70;6.10;;;29.80;51.60;;;29.07;37.24;97985.97;5029973;28;20453;-80
2023/07/11 08:39:50;;;;;;;6.03;5.37;;;29.30;51.90;;;28.83;37.60;97979.13;5043960;28;20474;-81
2023/07/11 08:42:32;;;;;;;5.87;5.23;;;29.10;51.90;;;28.95;37.47;97978.38;5045586;28;20922;-80
2023/07/11 08:45:09;;;;;;;5.93;5.37;;;28.80;52.40;;;28.91;37.07;97974.63;5035798;28;20455;-81
2023/07/11 08:47:43;;;;;;;6.03;5.47;;;28.90;52.20;;;29.07;36.16;97963.72;5029260;28;20515;-78
2023/07/11 08:50:16;;;;;;;6.23;5.53;;;29.00;51.70;;;29.01;37.33;97970.63;5030752;28;20465;-79
2023/07/11 08:52:46;;;;;;;5.80;5.13;;;29.00;52.00;;;28.67;37.41;97967.75;5027037;28;20455;-81
2023/07/11 08:55:19;;;;;;;5.30;4.83;;;28.60;51.80;;;28.79;36.40;97905.88;5028219;28;20571;-78
2023/07/11 08:57:54;;;;;;;5.83;5.23;;;28.90;51.90;;;29.47;36.70;97956.84;5035087;28;20470;-77
2023/07/11 09:00:23;;;;;;;7.23;5.80;;;29.30;51.80;;;29.38;36.67;97956.91;5033183;28;20460;-79
2023/07/11 09:02:58;;;;;;;6.00;5.27;;;29.30;52.10;;;29.68;36.58;97954.00;5027575;28;20446;-77
2023/07/11 09:05:40;;;;;;;7.10;6.40;;;29.50;52.30;;;30.21;35.72;97958.97;5035743;28;20549;-79
2023/07/11 09:08:14;;;;;;;6.43;5.83;;;29.90;51.90;;;30.40;35.56;97949.19;5038665;28;20467;-77
2023/07/11 09:10:51;;;;;;;6.47;5.87;;;30.00;51.60;;;29.78;36.10;97941.63;5032867;28;20447;-79
2023/07/11 09:14:07;;;;;;;6.10;5.50;;;30.00;51.30;;;29.61;36.55;97942.63;5036497;28;20455;-81
2023/07/11 09:16:37;;;;;;;5.50;5.00;;;29.60;51.60;;;29.95;35.55;97940.59;5059219;28;20536;-81
2023/07/11 09:19:23;;;;;;;5.37;4.87;;;29.70;51.60;;;30.18;35.90;97939.34;5048626;28;20455;-80
2023/07/11 09:22:01;;;;;;;4.80;4.40;;;30.00;51.50;;;30.08;35.52;97938.66;5027997;28;20453;-76
2023/07/11 09:24:39;;;;;;;4.57;4.27;;;30.00;51.20;;;30.03;35.57;97935.28;5028396;28;20545;-80
2023/07/11 09:27:22;;;;;;;6.47;5.87;;;30.00;51.00;;;30.64;34.71;97926.13;5042683;28;20458;-80
2023/07/11 09:29:51;;;;;;;6.27;5.77;;;30.30;51.20;;;30.51;34.83;97916.13;5036093;28;20482;-79
2023/07/11 09:32:19;;;;;;;5.10;4.60;;;30.40;50.90;;;30.87;33.98;97922.00;5073208;28;20457;-81
2023/07/11 09:34:49;;;;;;;6.30;5.80;;;30.60;50.50;;;30.86;34.30;97911.97;5050756;28;20469;-80
2023/07/11 09:37:27;;;;;;;5.80;5.30;;;30.60;50.50;;;31.12;34.19;97916.31;5042298;28;20489;-79
2023/07/11 09:40:03;;;;;;;5.87;5.37;;;30.80;50.70;;;30.95;35.00;97907.91;5053030;28;20442;-79
2023/07/11 09:42:42;;;;;;;6.70;6.03;;;30.90;50.80;;;31.25;34.42;97905.94;5046874;28;20482;-80
2023/07/11 09:45:14;;;;;;;5.87;5.33;;;30.90;50.80;;;31.06;34.30;97908.19;5064582;28;20535;-79
2023/07/11 09:47:43;;;;;;;6.00;5.50;;;30.90;50.30;;;30.79;34.58;97893.88;5044817;28;20458;-78
2023/07/11 09:50:41;;;;;;;7.07;6.07;;;30.90;50.60;;;30.64;35.13;97903.81;5041568;28;20511;-80
2023/07/11 09:53:17;;;;;;;5.60;5.10;;;30.60;50.70;;;30.48;35.31;97900.91;5033747;28;20918;-80
2023/07/11 09:55:44;;;;;;;5.43;4.93;;;30.50;50.80;;;31.07;34.55;97898.66;5032974;28;20479;-84
2023/07/11 09:58:16;;;;;;;5.23;4.80;;;30.80;51.00;;;31.27;33.84;97895.25;5036828;28;20463;-78
2023/07/11 10:00:48;;;;;;;5.43;4.93;;;31.00;50.30;;;30.86;33.72;97892.47;5028254;28;21189;-81
2023/07/11 10:03:20;;;;;;;6.60;4.90;;;30.80;49.60;;;31.25;33.84;97887.22;5045310;28;20451;-82
2023/07/11 10:05:51;;;;;;;5.43;4.97;;;30.90;50.20;;;31.10;34.10;97872.84;5041787;28;20451;-82
2023/07/11 10:08:23;;;;;;;6.37;5.57;;;31.10;50.10;;;31.14;32.92;97877.72;5029513;28;20455;-83
2023/07/11 10:10:53;;;;;;;5.50;5.10;;;31.10;49.30;;;31.19;32.34;97883.06;5063632;28;20521;-82
2023/07/11 10:13:23;;;;;;;5.97;5.37;;;31.10;49.00;;;31.44;32.43;97872.59;5046157;28;20446;-81
2023/07/11 10:15:53;;;;;;;9.70;5.87;;;31.10;49.10;;;31.52;32.54;97868.00;5032891;28;20474;-78
2023/07/11 10:18:25;;;;;;;5.50;5.00;;;31.30;49.20;;;31.55;32.62;97864.47;5032394;28;20465;-82